sensor_id;sensor_type;location;lat;lon;timestamp;pressure;altitude;pressure_sealevel;temperature;humidity
16016;BME280;8112;53.592;10.184;2023-07-31T00:01:20;100586.03;;;15.71;100.00
16016;BME280;8112;53.592;10.184;2023-07-31T00:06:23;100582.19;;;15.63;100.00
16016;BME280;8112;53.592;10.184;2023-07-31T00:11:24;100586.50;;;15.76;100.00
16016;BME280;8112;53.592;10.184;2023-07-31T00:16:26;100575.75;;;15.77;100.00
16016;BME280;8112;53.592;10.184;2023-07-31T00:21:30;100565.94;;;15.78;100.00
16016;BME280;8112;53.592;10.184;2023-07-31T00:26:31;100563.88;;;15.81;100.00
16016;BME280;8112;53.592;10.184;2023-07-31T00:31:33;100564.22;;;15.88;100.00
16016;BME280;8112;53.592;10.184;2023-07-31T00:36:36;100557.47;;;15.84;100.00
16016;BME280;8112;53.592;10.184;2023-07-31T00:41:38;100548.72;;;15.72;100.00
16016;BME280;8112;53.592;10.184;2023-07-31T00:46:39;100557.19;;;15.66;100.00
16016;BME280;8112;53.592;10.184;2023-07-31T00:51:42;100548.25;;;15.67;100.00
16016;BME280;8112;53.592;10.184;2023-07-31T00:56:45;100548.72;;;15.72;100.00
16016;BME280;8112;53.592;10.184;2023-07-31T01:01:49;100534.34;;;15.75;100.00
16016;BME280;8112;53.592;10.184;2023-07-31T01:06:56;100533.69;;;15.61;100.00
16016;BME280;8112;53.592;10.184;2023-07-31T01:12:04;100524.66;;;15.52;100.00
16016;BME280;8112;53.592;10.184;2023-07-31T01:17:08;100519.63;;;15.49;100.00
16016;BME280;8112;53.592;10.184;2023-07-31T01:22:24;100507.63;;;15.34;100.00
16016;BME280;8112;53.592;10.184;2023-07-31T01:27:34;100515.91;;;15.19;100.00
16016;BME280;8112;53.592;10.184;2023-07-31T01:32:42;100505.75;;;15.13;100.00
16016;BME280;8112;53.592;10.184;2023-07-31T01:37:45;100503.34;;;15.21;100.00
16016;BME280;8112;53.592;10.184;2023-07-31T01:42:48;100496.91;;;15.24;100.00
16016;BME280;8112;53.592;10.184;2023-07-31T01:47:49;100497.78;;;15.24;100.00
16016;BME280;8112;53.592;10.184;2023-07-31T01:52:51;100489.75;;;15.36;100.00
16016;BME280;8112;53.592;10.184;2023-07-31T01:57:54;100482.00;;;15.44;100.00
16016;BME280;8112;53.592;10.184;2023-07-31T02:02:56;100482.69;;;15.46;100.00
16016;BME280;8112;53.592;10.184;2023-07-31T02:07:58;100474.69;;;15.58;100.00
16016;BME280;8112;53.592;10.184;2023-07-31T02:13:03;100470.91;;;15.60;100.00
16016;BME280;8112;53.592;10.184;2023-07-31T02:18:05;100470.63;;;15.63;100.00
16016;BME280;8112;53.592;10.184;2023-07-31T02:23:06;100468.31;;;15.70;100.00
16016;BME280;8112;53.592;10.184;2023-07-31T02:28:10;100460.03;;;15.63;100.00
16016;BME280;8112;53.592;10.184;2023-07-31T02:33:12;100456.00;;;15.69;100.00
16016;BME280;8112;53.592;10.184;2023-07-31T02:38:14;100446.41;;;15.78;100.00
16016;BME280;8112;53.592;10.184;2023-07-31T02:43:19;100448.34;;;15.76;100.00
16016;BME280;8112;53.592;10.184;2023-07-31T02:48:21;100443.44;;;15.71;100.00
16016;BME280;8112;53.592;10.184;2023-07-31T02:53:23;100436.91;;;15.75;100.00
16016;BME280;8112;53.592;10.184;2023-07-31T02:58:26;100439.09;;;15.70;100.00
16016;BME280;8112;53.592;10.184;2023-07-31T03:03:27;100426.22;;;15.65;100.00
16016;BME280;8112;53.592;10.184;2023-07-31T03:08:29;100430.63;;;15.55;100.00
16016;BME280;8112;53.592;10.184;2023-07-31T03:13:32;100428.94;;;15.54;100.00
16016;BME280;8112;53.592;10.184;2023-07-31T03:18:34;100426.16;;;15.56;100.00
16016;BME280;8112;53.592;10.184;2023-07-31T03:23:36;100422.28;;;15.60;100.00
16016;BME280;8112;53.592;10.184;2023-07-31T03:28:39;100403.53;;;15.61;100.00
16016;BME280;8112;53.592;10.184;2023-07-31T03:33:40;100411.97;;;15.66;100.00
16016;BME280;8112;53.592;10.184;2023-07-31T03:38:42;100408.91;;;15.71;100.00
16016;BME280;8112;53.592;10.184;2023-07-31T03:43:46;100402.75;;;15.71;100.00
16016;BME280;8112;53.592;10.184;2023-07-31T03:48:47;100405.53;;;15.69;100.00
16016;BME280;8112;53.592;10.184;2023-07-31T03:53:49;100414.53;;;15.78;100.00
16016;BME280;8112;53.592;10.184;2023-07-31T03:58:52;100407.56;;;15.87;100.00
16016;BME280;8112;53.592;10.184;2023-07-31T04:03:54;100409.41;;;15.86;100.00
16016;BME280;8112;53.592;10.184;2023-07-31T04:08:55;100405.56;;;15.79;100.00
16016;BME280;8112;53.592;10.184;2023-07-31T04:13:58;100404.47;;;15.81;100.00
16016;BME280;8112;53.592;10.184;2023-07-31T04:19:00;100407.69;;;15.75;100.00
16016;BME280;8112;53.592;10.184;2023-07-31T04:24:03;100397.56;;;15.69;100.00
16016;BME280;8112;53.592;10.184;2023-07-31T04:29:06;100395.22;;;15.76;100.00
16016;BME280;8112;53.592;10.184;2023-07-31T04:34:08;100394.56;;;15.84;100.00
16016;BME280;8112;53.592;10.184;2023-07-31T04:39:10;100386.94;;;15.69;100.00
16016;BME280;8112;53.592;10.184;2023-07-31T04:44:14;100392.25;;;15.69;100.00
16016;BME280;8112;53.592;10.184;2023-07-31T04:49:15;100389.22;;;15.74;100.00
16016;BME280;8112;53.592;10.184;2023-07-31T04:54:17;100379.94;;;15.68;100.00
16016;BME280;8112;53.592;10.184;2023-07-31T04:59:20;100393.75;;;15.62;100.00
16016;BME280;8112;53.592;10.184;2023-07-31T05:04:22;100397.66;;;15.58;100.00
16016;BME280;8112;53.592;10.184;2023-07-31T05:09:23;100404.38;;;15.62;100.00
16016;BME280;8112;53.592;10.184;2023-07-31T05:14:26;100408.28;;;15.58;100.00
16016;BME280;8112;53.592;10.184;2023-07-31T05:19:28;100410.13;;;15.67;100.00
16016;BME280;8112;53.592;10.184;2023-07-31T05:24:30;100402.91;;;15.79;100.00
16016;BME280;8112;53.592;10.184;2023-07-31T05:29:33;100400.41;;;15.77;100.00
16016;BME280;8112;53.592;10.184;2023-07-31T05:34:34;100389.09;;;15.75;100.00
16016;BME280;8112;53.592;10.184;2023-07-31T05:39:36;100397.13;;;15.64;100.00
16016;BME280;8112;53.592;10.184;2023-07-31T05:44:39;100390.66;;;15.88;100.00
16016;BME280;8112;53.592;10.184;2023-07-31T05:49:41;100382.69;;;15.88;100.00
16016;BME280;8112;53.592;10.184;2023-07-31T05:54:43;100381.34;;;15.72;100.00
16016;BME280;8112;53.592;10.184;2023-07-31T05:59:47;100379.53;;;15.94;100.00
16016;BME280;8112;53.592;10.184;2023-07-31T06:04:49;100357.59;;;16.02;100.00
16016;BME280;8112;53.592;10.184;2023-07-31T06:09:51;100364.72;;;16.01;100.00
16016;BME280;8112;53.592;10.184;2023-07-31T06:14:54;100362.66;;;16.15;100.00
16016;BME280;8112;53.592;10.184;2023-07-31T06:19:56;100369.00;;;16.33;100.00
16016;BME280;8112;53.592;10.184;2023-07-31T06:24:58;100366.16;;;16.15;100.00
16016;BME280;8112;53.592;10.184;2023-07-31T06:30:01;100360.13;;;16.13;100.00
16016;BME280;8112;53.592;10.184;2023-07-31T06:35:04;100365.81;;;15.99;100.00
16016;BME280;8112;53.592;10.184;2023-07-31T06:40:07;100366.34;;;16.43;100.00
16016;BME280;8112;53.592;10.184;2023-07-31T06:45:10;100361.31;;;16.30;100.00
16016;BME280;8112;53.592;10.184;2023-07-31T06:50:12;100350.50;;;16.22;100.00
16016;BME280;8112;53.592;10.184;2023-07-31T06:55:18;100349.22;;;16.16;100.00
16016;BME280;8112;53.592;10.184;2023-07-31T07:00:22;100355.41;;;16.17;100.00
16016;BME280;8112;53.592;10.184;2023-07-31T07:05:24;100349.78;;;16.10;100.00
16016;BME280;8112;53.592;10.184;2023-07-31T07:10:26;100359.84;;;16.16;100.00
16016;BME280;8112;53.592;10.184;2023-07-31T07:15:29;100360.13;;;16.03;100.00
16016;BME280;8112;53.592;10.184;2023-07-31T07:20:31;100371.94;;;16.20;100.00
16016;BME280;8112;53.592;10.184;2023-07-31T07:25:32;100371.38;;;16.27;100.00
16016;BME280;8112;53.592;10.184;2023-07-31T07:30:35;100377.47;;;16.07;100.00
16016;BME280;8112;53.592;10.184;2023-07-31T07:35:37;100373.31;;;16.15;100.00
16016;BME280;8112;53.592;10.184;2023-07-31T07:40:39;100369.06;;;16.02;100.00
16016;BME280;8112;53.592;10.184;2023-07-31T07:45:42;100361.28;;;16.10;100.00
16016;BME280;8112;53.592;10.184;2023-07-31T07:50:44;100362.06;;;16.01;100.00
16016;BME280;8112;53.592;10.184;2023-07-31T07:55:45;100366.88;;;15.86;100.00
16016;BME280;8112;53.592;10.184;2023-07-31T08:00:51;100374.94;;;15.96;100.00
16016;BME280;8112;53.592;10.184;2023-07-31T08:05:57;100368.50;;;16.08;100.00
16016;BME280;8112;53.592;10.184;2023-07-31T08:10:59;100365.19;;;16.26;100.00
16016;BME280;8112;53.592;10.184;2023-07-31T08:16:03;100360.72;;;16.27;100.00
16016;BME280;8112;53.592;10.184;2023-07-31T08:21:04;100352.78;;;16.56;100.00
16016;BME280;8112;53.592;10.184;2023-07-31T08:26:06;100365.81;;;16.69;100.00
16016;BME280;8112;53.592;10.184;2023-07-31T08:31:09;100350.41;;;16.63;100.00
16016;BME280;8112;53.592;10.184;2023-07-31T08:36:12;100334.72;;;17.09;100.00
16016;BME280;8112;53.592;10.184;2023-07-31T08:41:13;100333.06;;;17.46;100.00
16016;BME280;8112;53.592;10.184;2023-07-31T08:46:18;100323.78;;;17.60;100.00
16016;BME280;8112;53.592;10.184;2023-07-31T08:51:21;100316.09;;;17.47;100.00
16016;BME280;8112;53.592;10.184;2023-07-31T08:56:23;100311.75;;;17.08;100.00
16016;BME280;8112;53.592;10.184;2023-07-31T09:01:29;100300.22;;;16.98;100.00
16016;BME280;8112;53.592;10.184;2023-07-31T09:06:31;100305.03;;;16.84;100.00
16016;BME280;8112;53.592;10.184;2023-07-31T09:11:33;100300.13;;;16.79;100.00
16016;BME280;8112;53.592;10.184;2023-07-31T09:16:51;100294.66;;;16.81;100.00
16016;BME280;8112;53.592;10.184;2023-07-31T09:21:53;100297.88;;;17.04;100.00
16016;BME280;8112;53.592;10.184;2023-07-31T09:26:55;100298.28;;;17.00;100.00
16016;BME280;8112;53.592;10.184;2023-07-31T09:31:58;100296.50;;;17.00;100.00
16016;BME280;8112;53.592;10.184;2023-07-31T09:37:01;100290.19;;;17.01;100.00
16016;BME280;8112;53.592;10.184;2023-07-31T09:42:04;100278.97;;;16.88;100.00
16016;BME280;8112;53.592;10.184;2023-07-31T09:47:21;100272.41;;;17.02;100.00
16016;BME280;8112;53.592;10.184;2023-07-31T09:52:25;100276.91;;;17.39;100.00
16016;BME280;8112;53.592;10.184;2023-07-31T09:57:27;100260.50;;;17.34;100.00
16016;BME280;8112;53.592;10.184;2023-07-31T10:02:32;100246.63;;;17.40;100.00
16016;BME280;8112;53.592;10.184;2023-07-31T10:07:36;100241.47;;;17.29;100.00
16016;BME280;8112;53.592;10.184;2023-07-31T10:12:39;100238.81;;;17.29;100.00
16016;BME280;8112;53.592;10.184;2023-07-31T10:17:42;100243.69;;;17.33;100.00
16016;BME280;8112;53.592;10.184;2023-07-31T10:22:44;100237.47;;;17.15;100.00
16016;BME280;8112;53.592;10.184;2023-07-31T10:27:47;100237.34;;;17.44;100.00
16016;BME280;8112;53.592;10.184;2023-07-31T10:32:51;100240.56;;;17.10;100.00
16016;BME280;8112;53.592;10.184;2023-07-31T10:37:54;100226.97;;;17.13;100.00
16016;BME280;8112;53.592;10.184;2023-07-31T10:42:56;100209.44;;;17.20;100.00
16016;BME280;8112;53.592;10.184;2023-07-31T10:48:01;100219.84;;;17.04;100.00
16016;BME280;8112;53.592;10.184;2023-07-31T10:53:04;100216.50;;;17.02;100.00
16016;BME280;8112;53.592;10.184;2023-07-31T10:58:08;100214.00;;;17.28;100.00
16016;BME280;8112;53.592;10.184;2023-07-31T11:03:13;100218.88;;;16.95;100.00
16016;BME280;8112;53.592;10.184;2023-07-31T11:08:17;100208.91;;;17.35;100.00
16016;BME280;8112;53.592;10.184;2023-07-31T11:13:19;100216.22;;;17.05;100.00
16016;BME280;8112;53.592;10.184;2023-07-31T11:18:23;100220.97;;;17.01;100.00
16016;BME280;8112;53.592;10.184;2023-07-31T11:23:25;100208.56;;;16.72;100.00
16016;BME280;8112;53.592;10.184;2023-07-31T11:28:31;100213.47;;;17.24;100.00
16016;BME280;8112;53.592;10.184;2023-07-31T11:33:34;100222.00;;;17.74;100.00
16016;BME280;8112;53.592;10.184;2023-07-31T11:38:36;100204.56;;;17.62;100.00
16016;BME280;8112;53.592;10.184;2023-07-31T11:43:38;100198.13;;;17.36;100.00
16016;BME280;8112;53.592;10.184;2023-07-31T11:48:41;100199.81;;;17.56;100.00
16016;BME280;8112;53.592;10.184;2023-07-31T11:53:44;100198.75;;;17.48;100.00
16016;BME280;8112;53.592;10.184;2023-07-31T11:58:47;100201.88;;;17.44;100.00
16016;BME280;8112;53.592;10.184;2023-07-31T12:03:52;100209.81;;;17.26;100.00
16016;BME280;8112;53.592;10.184;2023-07-31T12:09:00;100213.41;;;17.34;100.00
16016;BME280;8112;53.592;10.184;2023-07-31T12:14:04;100215.91;;;16.98;100.00
16016;BME280;8112;53.592;10.184;2023-07-31T12:19:10;100216.13;;;16.77;100.00
16016;BME280;8112;53.592;10.184;2023-07-31T12:24:12;100210.09;;;16.75;100.00
16016;BME280;8112;53.592;10.184;2023-07-31T12:29:13;100201.09;;;16.86;100.00
16016;BME280;8112;53.592;10.184;2023-07-31T12:34:17;100202.31;;;17.11;100.00
16016;BME280;8112;53.592;10.184;2023-07-31T12:39:19;100192.94;;;16.97;100.00
16016;BME280;8112;53.592;10.184;2023-07-31T12:44:21;100180.94;;;16.83;100.00
16016;BME280;8112;53.592;10.184;2023-07-31T12:49:24;100173.06;;;16.91;100.00
16016;BME280;8112;53.592;10.184;2023-07-31T12:54:25;100179.00;;;16.85;100.00
16016;BME280;8112;53.592;10.184;2023-07-31T12:59:27;100171.72;;;16.77;100.00
16016;BME280;8112;53.592;10.184;2023-07-31T13:04:30;100166.38;;;16.87;100.00
16016;BME280;8112;53.592;10.184;2023-07-31T13:15:56;100156.69;;;17.24;100.00
16016;BME280;8112;53.592;10.184;2023-07-31T13:21:04;100148.47;;;17.17;100.00
16016;BME280;8112;53.592;10.184;2023-07-31T13:26:05;100130.25;;;16.85;100.00
16016;BME280;8112;53.592;10.184;2023-07-31T13:31:10;100134.03;;;16.82;100.00
16016;BME280;8112;53.592;10.184;2023-07-31T13:36:16;100125.72;;;16.95;100.00
16016;BME280;8112;53.592;10.184;2023-07-31T13:41:18;100130.19;;;17.04;100.00
16016;BME280;8112;53.592;10.184;2023-07-31T13:46:19;100119.84;;;16.91;100.00
16016;BME280;8112;53.592;10.184;2023-07-31T13:51:22;100112.50;;;16.75;100.00
16016;BME280;8112;53.592;10.184;2023-07-31T13:56:24;100109.06;;;17.03;100.00
16016;BME280;8112;53.592;10.184;2023-07-31T14:01:26;100108.25;;;17.20;100.00
16016;BME280;8112;53.592;10.184;2023-07-31T14:06:29;100104.75;;;16.82;100.00
16016;BME280;8112;53.592;10.184;2023-07-31T14:11:31;100093.53;;;16.88;100.00
16016;BME280;8112;53.592;10.184;2023-07-31T14:16:33;100089.88;;;16.99;100.00
16016;BME280;8112;53.592;10.184;2023-07-31T14:21:36;100097.59;;;17.20;100.00
16016;BME280;8112;53.592;10.184;2023-07-31T14:26:38;100096.81;;;17.10;100.00
16016;BME280;8112;53.592;10.184;2023-07-31T14:31:39;100087.63;;;16.94;100.00
16016;BME280;8112;53.592;10.184;2023-07-31T14:36:42;100079.56;;;16.86;100.00
16016;BME280;8112;53.592;10.184;2023-07-31T14:41:44;100083.69;;;16.71;100.00
16016;BME280;8112;53.592;10.184;2023-07-31T14:46:48;100079.13;;;16.53;100.00
16016;BME280;8112;53.592;10.184;2023-07-31T14:51:51;100072.28;;;16.50;100.00
16016;BME280;8112;53.592;10.184;2023-07-31T14:56:52;100067.72;;;16.71;100.00
16016;BME280;8112;53.592;10.184;2023-07-31T15:01:57;100065.09;;;16.89;100.00
16016;BME280;8112;53.592;10.184;2023-07-31T15:07:00;100082.28;;;16.94;100.00
16016;BME280;8112;53.592;10.184;2023-07-31T15:12:02;100073.06;;;16.99;100.00
16016;BME280;8112;53.592;10.184;2023-07-31T15:17:04;100085.94;;;17.03;100.00
16016;BME280;8112;53.592;10.184;2023-07-31T15:22:07;100094.22;;;16.90;100.00
16016;BME280;8112;53.592;10.184;2023-07-31T15:27:09;100109.84;;;16.75;100.00
16016;BME280;8112;53.592;10.184;2023-07-31T15:32:11;100103.16;;;16.61;100.00
16016;BME280;8112;53.592;10.184;2023-07-31T15:37:14;100093.63;;;16.69;100.00
16016;BME280;8112;53.592;10.184;2023-07-31T15:42:18;100089.78;;;16.81;100.00
16016;BME280;8112;53.592;10.184;2023-07-31T15:47:19;100085.63;;;17.06;100.00
16016;BME280;8112;53.592;10.184;2023-07-31T15:52:22;100092.59;;;17.35;100.00
16016;BME280;8112;53.592;10.184;2023-07-31T15:57:24;100093.59;;;17.34;100.00
16016;BME280;8112;53.592;10.184;2023-07-31T16:02:26;100105.59;;;17.38;100.00
16016;BME280;8112;53.592;10.184;2023-07-31T16:07:29;100097.84;;;17.45;100.00
16016;BME280;8112;53.592;10.184;2023-07-31T16:12:30;100073.88;;;17.45;100.00
16016;BME280;8112;53.592;10.184;2023-07-31T16:17:33;100070.22;;;17.46;100.00
16016;BME280;8112;53.592;10.184;2023-07-31T16:22:36;100071.91;;;17.47;100.00
16016;BME280;8112;53.592;10.184;2023-07-31T16:27:38;100069.38;;;17.46;100.00
16016;BME280;8112;53.592;10.184;2023-07-31T16:32:39;100064.81;;;17.38;100.00
16016;BME280;8112;53.592;10.184;2023-07-31T16:37:42;100088.94;;;17.36;100.00
16016;BME280;8112;53.592;10.184;2023-07-31T16:42:47;100108.13;;;17.40;100.00
16016;BME280;8112;53.592;10.184;2023-07-31T16:47:48;100106.22;;;17.32;100.00
16016;BME280;8112;53.592;10.184;2023-07-31T16:52:51;100105.22;;;17.33;100.00
16016;BME280;8112;53.592;10.184;2023-07-31T16:57:53;100112.66;;;17.30;100.00
16016;BME280;8112;53.592;10.184;2023-07-31T17:02:56;100120.03;;;17.36;100.00
16016;BME280;8112;53.592;10.184;2023-07-31T17:07:59;100118.97;;;17.29;100.00
16016;BME280;8112;53.592;10.184;2023-07-31T17:13:01;100108.72;;;17.34;100.00
16016;BME280;8112;53.592;10.184;2023-07-31T17:18:03;100102.88;;;17.30;100.00
16016;BME280;8112;53.592;10.184;2023-07-31T17:23:06;100115.41;;;17.38;100.00
16016;BME280;8112;53.592;10.184;2023-07-31T17:28:07;100112.66;;;17.30;100.00
16016;BME280;8112;53.592;10.184;2023-07-31T17:33:09;100110.69;;;17.32;100.00
16016;BME280;8112;53.592;10.184;2023-07-31T17:38:12;100111.16;;;17.45;100.00
16016;BME280;8112;53.592;10.184;2023-07-31T17:43:16;100104.22;;;17.52;100.00
16016;BME280;8112;53.592;10.184;2023-07-31T17:48:18;100108.28;;;17.57;100.00
16016;BME280;8112;53.592;10.184;2023-07-31T17:53:21;100107.44;;;17.56;100.00
16016;BME280;8112;53.592;10.184;2023-07-31T17:58:23;100099.91;;;17.51;100.00
16016;BME280;8112;53.592;10.184;2023-07-31T18:03:24;100104.84;;;17.46;100.00
16016;BME280;8112;53.592;10.184;2023-07-31T18:08:28;100101.56;;;17.52;100.00
16016;BME280;8112;53.592;10.184;2023-07-31T18:13:29;100100.91;;;17.50;100.00
16016;BME280;8112;53.592;10.184;2023-07-31T18:18:31;100099.22;;;17.49;100.00
16016;BME280;8112;53.592;10.184;2023-07-31T18:23:34;100095.72;;;17.49;100.00
16016;BME280;8112;53.592;10.184;2023-07-31T18:28:36;100081.31;;;17.42;100.00
16016;BME280;8112;53.592;10.184;2023-07-31T18:33:37;100093.81;;;17.41;100.00
16016;BME280;8112;53.592;10.184;2023-07-31T18:38:40;100077.06;;;17.31;100.00
16016;BME280;8112;53.592;10.184;2023-07-31T18:43:42;100076.38;;;17.29;100.00
16016;BME280;8112;53.592;10.184;2023-07-31T18:48:44;100061.09;;;17.31;100.00
16016;BME280;8112;53.592;10.184;2023-07-31T18:53:47;100057.13;;;17.35;100.00
16016;BME280;8112;53.592;10.184;2023-07-31T18:58:48;100045.72;;;17.24;100.00
16016;BME280;8112;53.592;10.184;2023-07-31T19:03:53;100046.78;;;17.32;100.00
16016;BME280;8112;53.592;10.184;2023-07-31T19:08:56;100052.41;;;17.29;100.00
16016;BME280;8112;53.592;10.184;2023-07-31T19:13:59;100044.44;;;17.29;100.00
16016;BME280;8112;53.592;10.184;2023-07-31T19:19:01;100051.88;;;17.25;100.00
16016;BME280;8112;53.592;10.184;2023-07-31T19:24:04;100041.41;;;17.23;100.00
16016;BME280;8112;53.592;10.184;2023-07-31T19:29:06;100041.22;;;17.25;100.00
16016;BME280;8112;53.592;10.184;2023-07-31T19:34:08;100033.78;;;17.29;100.00
16016;BME280;8112;53.592;10.184;2023-07-31T19:39:11;100035.06;;;17.24;100.00
16016;BME280;8112;53.592;10.184;2023-07-31T19:44:15;100038.88;;;17.22;100.00
16016;BME280;8112;53.592;10.184;2023-07-31T19:49:17;100031.19;;;17.19;100.00
16016;BME280;8112;53.592;10.184;2023-07-31T19:54:20;100041.53;;;17.22;100.00
16016;BME280;8112;53.592;10.184;2023-07-31T19:59:21;100030.34;;;17.18;100.00
16016;BME280;8112;53.592;10.184;2023-07-31T20:04:23;100035.06;;;17.24;100.00
16016;BME280;8112;53.592;10.184;2023-07-31T20:09:26;100035.06;;;17.24;100.00
16016;BME280;8112;53.592;10.184;2023-07-31T20:14:28;100022.91;;;17.22;100.00
16016;BME280;8112;53.592;10.184;2023-07-31T20:19:30;100014.09;;;17.21;100.00
16016;BME280;8112;53.592;10.184;2023-07-31T20:24:33;100008.03;;;17.19;100.00
16016;BME280;8112;53.592;10.184;2023-07-31T20:29:35;100008.53;;;17.15;100.00
16016;BME280;8112;53.592;10.184;2023-07-31T20:34:40;99987.75;;;17.18;100.00
16016;BME280;8112;53.592;10.184;2023-07-31T20:39:43;99985.25;;;17.17;100.00
16016;BME280;8112;53.592;10.184;2023-07-31T20:44:45;99957.78;;;17.16;100.00
16016;BME280;8112;53.592;10.184;2023-07-31T20:49:46;99964.78;;;17.17;100.00
16016;BME280;8112;53.592;10.184;2023-07-31T20:54:49;99951.94;;;17.13;100.00
16016;BME280;8112;53.592;10.184;2023-07-31T20:59:52;99946.75;;;17.11;100.00
16016;BME280;8112;53.592;10.184;2023-07-31T21:04:54;99937.09;;;17.10;100.00
16016;BME280;8112;53.592;10.184;2023-07-31T21:09:57;99915.44;;;17.05;100.00
16016;BME280;8112;53.592;10.184;2023-07-31T21:14:59;99906.97;;;17.09;100.00
16016;BME280;8112;53.592;10.184;2023-07-31T21:20:01;99900.66;;;17.10;100.00
16016;BME280;8112;53.592;10.184;2023-07-31T21:25:05;99879.19;;;17.04;100.00
16016;BME280;8112;53.592;10.184;2023-07-31T21:30:08;99883.97;;;17.00;100.00
16016;BME280;8112;53.592;10.184;2023-07-31T21:35:09;99872.25;;;16.93;100.00
16016;BME280;8112;53.592;10.184;2023-07-31T21:40:13;99867.97;;;16.82;100.00
16016;BME280;8112;53.592;10.184;2023-07-31T21:45:14;99870.94;;;16.79;100.00
16016;BME280;8112;53.592;10.184;2023-07-31T21:50:17;99858.78;;;16.76;100.00
16016;BME280;8112;53.592;10.184;2023-07-31T21:55:20;99860.63;;;16.58;100.00
16016;BME280;8112;53.592;10.184;2023-07-31T22:00:21;99849.13;;;16.57;100.00
16016;BME280;8112;53.592;10.184;2023-07-31T22:05:23;99834.78;;;16.50;100.00
16016;BME280;8112;53.592;10.184;2023-07-31T22:10:26;99818.81;;;16.50;100.00
16016;BME280;8112;53.592;10.184;2023-07-31T22:15:28;99809.94;;;16.41;100.00
16016;BME280;8112;53.592;10.184;2023-07-31T22:20:30;99799.81;;;16.45;100.00
16016;BME280;8112;53.592;10.184;2023-07-31T22:25:33;99784.25;;;16.50;100.00
16016;BME280;8112;53.592;10.184;2023-07-31T22:30:34;99780.44;;;16.52;100.00
16016;BME280;8112;53.592;10.184;2023-07-31T22:35:36;99777.41;;;16.47;100.00
16016;BME280;8112;53.592;10.184;2023-07-31T22:40:39;99760.63;;;16.47;100.00
16016;BME280;8112;53.592;10.184;2023-07-31T22:45:44;99756.28;;;16.46;100.00
16016;BME280;8112;53.592;10.184;2023-07-31T22:50:46;99737.56;;;16.56;100.00
16016;BME280;8112;53.592;10.184;2023-07-31T22:55:49;99735.09;;;16.54;100.00
16016;BME280;8112;53.592;10.184;2023-07-31T23:01:00;99732.78;;;16.59;100.00
16016;BME280;8112;53.592;10.184;2023-07-31T23:06:02;99713.19;;;16.60;100.00
16016;BME280;8112;53.592;10.184;2023-07-31T23:11:05;99701.03;;;16.58;100.00
16016;BME280;8112;53.592;10.184;2023-07-31T23:16:07;99699.19;;;16.58;100.00
16016;BME280;8112;53.592;10.184;2023-07-31T23:21:08;99693.88;;;16.58;100.00
16016;BME280;8112;53.592;10.184;2023-07-31T23:26:12;99692.22;;;16.57;100.00
16016;BME280;8112;53.592;10.184;2023-07-31T23:31:14;99685.09;;;16.58;100.00
16016;BME280;8112;53.592;10.184;2023-07-31T23:36:15;99681.72;;;16.56;100.00
16016;BME280;8112;53.592;10.184;2023-07-31T23:41:18;99674.28;;;16.59;100.00
16016;BME280;8112;53.592;10.184;2023-07-31T23:46:20;99672.94;;;16.55;100.00
16016;BME280;8112;53.592;10.184;2023-07-31T23:51:22;99684.19;;;16.49;100.00
16016;BME280;8112;53.592;10.184;2023-07-31T23:56:25;99672.78;;;16.57;100.00
